sensor_id;sensor_type;location;lat;lon;timestamp;P1;durP1;ratioP1;P2;durP2;ratioP2
52354;SDS011;38286;51.156;17.038;2023-11-21T00:00:32;11.85;;;4.80;;
52354;SDS011;38286;51.156;17.038;2023-11-21T00:03:17;10.65;;;4.63;;
52354;SDS011;38286;51.156;17.038;2023-11-21T00:05:44;12.80;;;4.97;;
52354;SDS011;38286;51.156;17.038;2023-11-21T00:08:10;13.82;;;4.82;;
52354;SDS011;38286;51.156;17.038;2023-11-21T00:10:37;10.32;;;4.63;;
52354;SDS011;38286;51.156;17.038;2023-11-21T00:13:03;9.70;;;4.88;;
52354;SDS011;38286;51.156;17.038;2023-11-21T00:15:30;13.40;;;5.20;;
52354;SDS011;38286;51.156;17.038;2023-11-21T00:17:55;10.82;;;4.20;;
52354;SDS011;38286;51.156;17.038;2023-11-21T00:20:21;12.85;;;4.60;;
52354;SDS011;38286;51.156;17.038;2023-11-21T00:22:47;9.88;;;4.00;;
52354;SDS011;38286;51.156;17.038;2023-11-21T00:25:13;10.30;;;4.05;;
52354;SDS011;38286;51.156;17.038;2023-11-21T00:27:41;10.70;;;4.57;;
52354;SDS011;38286;51.156;17.038;2023-11-21T00:30:07;10.13;;;4.30;;
52354;SDS011;38286;51.156;17.038;2023-11-21T00:32:37;8.98;;;3.92;;
52354;SDS011;38286;51.156;17.038;2023-11-21T00:35:03;8.00;;;3.75;;
52354;SDS011;38286;51.156;17.038;2023-11-21T00:37:30;9.95;;;4.13;;
52354;SDS011;38286;51.156;17.038;2023-11-21T00:39:57;11.18;;;3.72;;
52354;SDS011;38286;51.156;17.038;2023-11-21T00:42:23;9.65;;;4.10;;
52354;SDS011;38286;51.156;17.038;2023-11-21T00:44:49;9.98;;;3.80;;
52354;SDS011;38286;51.156;17.038;2023-11-21T00:47:15;13.68;;;3.78;;
52354;SDS011;38286;51.156;17.038;2023-11-21T00:49:42;7.40;;;3.58;;
52354;SDS011;38286;51.156;17.038;2023-11-21T00:52:08;8.23;;;3.78;;
52354;SDS011;38286;51.156;17.038;2023-11-21T00:54:34;8.88;;;3.53;;
52354;SDS011;38286;51.156;17.038;2023-11-21T00:57:01;15.48;;;4.40;;
52354;SDS011;38286;51.156;17.038;2023-11-21T00:59:27;12.55;;;4.30;;
52354;SDS011;38286;51.156;17.038;2023-11-21T01:01:53;10.52;;;3.97;;
52354;SDS011;38286;51.156;17.038;2023-11-21T01:04:19;12.65;;;4.35;;
52354;SDS011;38286;51.156;17.038;2023-11-21T01:06:45;9.10;;;4.15;;
52354;SDS011;38286;51.156;17.038;2023-11-21T01:09:11;9.32;;;4.30;;
52354;SDS011;38286;51.156;17.038;2023-11-21T01:11:38;10.20;;;3.83;;
52354;SDS011;38286;51.156;17.038;2023-11-21T01:14:04;11.13;;;4.13;;
52354;SDS011;38286;51.156;17.038;2023-11-21T01:16:31;8.00;;;4.05;;
52354;SDS011;38286;51.156;17.038;2023-11-21T01:19:00;10.52;;;3.75;;
52354;SDS011;38286;51.156;17.038;2023-11-21T01:21:27;7.63;;;3.40;;
52354;SDS011;38286;51.156;17.038;2023-11-21T01:23:53;11.10;;;4.03;;
52354;SDS011;38286;51.156;17.038;2023-11-21T01:26:20;9.10;;;3.80;;
52354;SDS011;38286;51.156;17.038;2023-11-21T01:28:46;8.73;;;3.75;;
52354;SDS011;38286;51.156;17.038;2023-11-21T01:31:14;8.90;;;3.63;;
52354;SDS011;38286;51.156;17.038;2023-11-21T01:33:41;10.90;;;4.32;;
52354;SDS011;38286;51.156;17.038;2023-11-21T01:36:07;7.93;;;3.97;;
52354;SDS011;38286;51.156;17.038;2023-11-21T01:38:33;9.18;;;4.00;;
52354;SDS011;38286;51.156;17.038;2023-11-21T01:41:00;9.23;;;4.03;;
52354;SDS011;38286;51.156;17.038;2023-11-21T01:43:26;10.98;;;4.28;;
52354;SDS011;38286;51.156;17.038;2023-11-21T01:45:55;16.25;;;4.40;;
52354;SDS011;38286;51.156;17.038;2023-11-21T01:48:24;11.45;;;4.90;;
52354;SDS011;38286;51.156;17.038;2023-11-21T01:50:51;7.40;;;4.10;;
52354;SDS011;38286;51.156;17.038;2023-11-21T01:53:17;10.43;;;3.95;;
52354;SDS011;38286;51.156;17.038;2023-11-21T01:55:43;8.80;;;3.90;;
52354;SDS011;38286;51.156;17.038;2023-11-21T01:58:10;12.13;;;3.88;;
52354;SDS011;38286;51.156;17.038;2023-11-21T02:00:37;9.23;;;3.53;;
52354;SDS011;38286;51.156;17.038;2023-11-21T02:03:04;11.40;;;3.67;;
52354;SDS011;38286;51.156;17.038;2023-11-21T02:05:30;9.77;;;3.75;;
52354;SDS011;38286;51.156;17.038;2023-11-21T02:07:56;9.23;;;3.75;;
52354;SDS011;38286;51.156;17.038;2023-11-21T02:10:22;13.10;;;4.60;;
52354;SDS011;38286;51.156;17.038;2023-11-21T02:12:50;9.15;;;4.03;;
52354;SDS011;38286;51.156;17.038;2023-11-21T02:15:16;8.70;;;3.95;;
52354;SDS011;38286;51.156;17.038;2023-11-21T02:17:46;10.85;;;4.07;;
52354;SDS011;38286;51.156;17.038;2023-11-21T02:20:13;8.63;;;3.97;;
52354;SDS011;38286;51.156;17.038;2023-11-21T02:22:50;7.75;;;4.15;;
52354;SDS011;38286;51.156;17.038;2023-11-21T02:25:29;10.15;;;4.18;;
52354;SDS011;38286;51.156;17.038;2023-11-21T02:27:57;9.82;;;4.47;;
52354;SDS011;38286;51.156;17.038;2023-11-21T02:30:24;7.47;;;4.15;;
52354;SDS011;38286;51.156;17.038;2023-11-21T02:32:51;10.70;;;4.15;;
52354;SDS011;38286;51.156;17.038;2023-11-21T02:35:20;8.02;;;3.95;;
52354;SDS011;38286;51.156;17.038;2023-11-21T02:37:47;8.90;;;4.30;;
52354;SDS011;38286;51.156;17.038;2023-11-21T02:40:13;10.20;;;4.32;;
52354;SDS011;38286;51.156;17.038;2023-11-21T02:42:43;11.95;;;4.28;;
52354;SDS011;38286;51.156;17.038;2023-11-21T02:45:09;11.20;;;4.65;;
52354;SDS011;38286;51.156;17.038;2023-11-21T02:47:38;11.45;;;4.55;;
52354;SDS011;38286;51.156;17.038;2023-11-21T02:50:05;13.18;;;4.57;;
52354;SDS011;38286;51.156;17.038;2023-11-21T02:52:34;12.48;;;5.25;;
52354;SDS011;38286;51.156;17.038;2023-11-21T02:55:01;12.32;;;5.30;;
52354;SDS011;38286;51.156;17.038;2023-11-21T02:57:27;11.50;;;4.88;;
52354;SDS011;38286;51.156;17.038;2023-11-21T02:59:54;13.35;;;5.70;;
52354;SDS011;38286;51.156;17.038;2023-11-21T03:02:20;13.20;;;5.75;;
52354;SDS011;38286;51.156;17.038;2023-11-21T03:04:46;14.23;;;6.07;;
52354;SDS011;38286;51.156;17.038;2023-11-21T03:07:15;18.20;;;6.40;;
52354;SDS011;38286;51.156;17.038;2023-11-21T03:09:41;17.50;;;6.47;;
52354;SDS011;38286;51.156;17.038;2023-11-21T03:12:07;15.43;;;5.75;;
52354;SDS011;38286;51.156;17.038;2023-11-21T03:14:34;19.27;;;6.88;;
52354;SDS011;38286;51.156;17.038;2023-11-21T03:17:00;17.25;;;7.00;;
52354;SDS011;38286;51.156;17.038;2023-11-21T03:19:26;17.42;;;5.97;;
52354;SDS011;38286;51.156;17.038;2023-11-21T03:21:52;19.45;;;7.13;;
52354;SDS011;38286;51.156;17.038;2023-11-21T03:24:18;16.45;;;7.00;;
52354;SDS011;38286;51.156;17.038;2023-11-21T03:26:45;14.98;;;6.80;;
52354;SDS011;38286;51.156;17.038;2023-11-21T03:29:14;16.35;;;7.30;;
52354;SDS011;38286;51.156;17.038;2023-11-21T03:31:40;21.20;;;8.23;;
52354;SDS011;38286;51.156;17.038;2023-11-21T03:34:06;20.75;;;7.53;;
52354;SDS011;38286;51.156;17.038;2023-11-21T03:36:32;18.60;;;7.38;;
52354;SDS011;38286;51.156;17.038;2023-11-21T03:38:58;17.63;;;7.18;;
52354;SDS011;38286;51.156;17.038;2023-11-21T03:41:24;17.95;;;7.22;;
52354;SDS011;38286;51.156;17.038;2023-11-21T03:43:50;18.27;;;7.47;;
52354;SDS011;38286;51.156;17.038;2023-11-21T03:46:16;16.88;;;7.15;;
52354;SDS011;38286;51.156;17.038;2023-11-21T03:48:42;18.10;;;7.10;;
52354;SDS011;38286;51.156;17.038;2023-11-21T03:51:08;15.32;;;7.18;;
52354;SDS011;38286;51.156;17.038;2023-11-21T03:53:34;16.65;;;7.57;;
52354;SDS011;38286;51.156;17.038;2023-11-21T03:56:02;17.77;;;6.60;;
52354;SDS011;38286;51.156;17.038;2023-11-21T03:58:29;16.38;;;7.25;;
52354;SDS011;38286;51.156;17.038;2023-11-21T04:00:55;13.23;;;6.22;;
52354;SDS011;38286;51.156;17.038;2023-11-21T04:03:20;18.13;;;7.30;;
52354;SDS011;38286;51.156;17.038;2023-11-21T04:05:46;15.98;;;7.00;;
52354;SDS011;38286;51.156;17.038;2023-11-21T04:08:12;14.73;;;6.25;;
52354;SDS011;38286;51.156;17.038;2023-11-21T04:10:38;19.05;;;6.95;;
52354;SDS011;38286;51.156;17.038;2023-11-21T04:13:05;17.50;;;6.88;;
52354;SDS011;38286;51.156;17.038;2023-11-21T04:15:32;14.43;;;6.90;;
52354;SDS011;38286;51.156;17.038;2023-11-21T04:17:58;14.95;;;6.53;;
52354;SDS011;38286;51.156;17.038;2023-11-21T04:20:24;16.50;;;7.28;;
52354;SDS011;38286;51.156;17.038;2023-11-21T04:22:50;15.07;;;6.72;;
52354;SDS011;38286;51.156;17.038;2023-11-21T04:25:16;16.00;;;7.10;;
52354;SDS011;38286;51.156;17.038;2023-11-21T04:27:44;17.17;;;6.63;;
52354;SDS011;38286;51.156;17.038;2023-11-21T04:30:11;18.73;;;7.35;;
52354;SDS011;38286;51.156;17.038;2023-11-21T04:32:37;17.50;;;6.25;;
52354;SDS011;38286;51.156;17.038;2023-11-21T04:35:04;14.23;;;6.53;;
52354;SDS011;38286;51.156;17.038;2023-11-21T04:37:31;13.90;;;5.70;;
52354;SDS011;38286;51.156;17.038;2023-11-21T04:39:57;12.48;;;5.63;;
52354;SDS011;38286;51.156;17.038;2023-11-21T04:42:22;11.55;;;5.57;;
52354;SDS011;38286;51.156;17.038;2023-11-21T04:44:49;11.38;;;5.25;;
52354;SDS011;38286;51.156;17.038;2023-11-21T04:47:15;12.13;;;5.38;;
52354;SDS011;38286;51.156;17.038;2023-11-21T04:49:45;10.13;;;4.75;;
52354;SDS011;38286;51.156;17.038;2023-11-21T04:52:12;8.63;;;4.20;;
52354;SDS011;38286;51.156;17.038;2023-11-21T04:54:38;9.70;;;4.35;;
52354;SDS011;38286;51.156;17.038;2023-11-21T04:57:05;7.72;;;4.25;;
52354;SDS011;38286;51.156;17.038;2023-11-21T04:59:33;7.05;;;3.90;;
52354;SDS011;38286;51.156;17.038;2023-11-21T05:01:59;12.23;;;4.03;;
52354;SDS011;38286;51.156;17.038;2023-11-21T05:04:26;7.22;;;3.60;;
52354;SDS011;38286;51.156;17.038;2023-11-21T05:06:52;7.95;;;3.88;;
52354;SDS011;38286;51.156;17.038;2023-11-21T05:09:18;7.72;;;4.03;;
52354;SDS011;38286;51.156;17.038;2023-11-21T05:11:44;8.75;;;4.60;;
52354;SDS011;38286;51.156;17.038;2023-11-21T05:14:10;8.27;;;4.68;;
52354;SDS011;38286;51.156;17.038;2023-11-21T05:16:36;8.80;;;4.90;;
52354;SDS011;38286;51.156;17.038;2023-11-21T05:19:03;11.30;;;5.93;;
52354;SDS011;38286;51.156;17.038;2023-11-21T05:21:30;15.27;;;7.03;;
52354;SDS011;38286;51.156;17.038;2023-11-21T05:23:59;13.25;;;6.22;;
52354;SDS011;38286;51.156;17.038;2023-11-21T05:26:25;15.02;;;7.18;;
52354;SDS011;38286;51.156;17.038;2023-11-21T05:28:51;15.18;;;7.50;;
52354;SDS011;38286;51.156;17.038;2023-11-21T05:31:17;16.40;;;7.78;;
52354;SDS011;38286;51.156;17.038;2023-11-21T05:33:43;12.80;;;7.28;;
52354;SDS011;38286;51.156;17.038;2023-11-21T05:36:09;15.82;;;7.30;;
52354;SDS011;38286;51.156;17.038;2023-11-21T05:38:35;15.30;;;7.13;;
52354;SDS011;38286;51.156;17.038;2023-11-21T05:41:02;12.25;;;6.43;;
52354;SDS011;38286;51.156;17.038;2023-11-21T05:43:29;16.77;;;7.18;;
52354;SDS011;38286;51.156;17.038;2023-11-21T05:45:56;14.30;;;7.13;;
52354;SDS011;38286;51.156;17.038;2023-11-21T05:48:22;13.48;;;7.00;;
52354;SDS011;38286;51.156;17.038;2023-11-21T05:50:48;13.60;;;7.07;;
52354;SDS011;38286;51.156;17.038;2023-11-21T05:53:15;13.63;;;7.20;;
52354;SDS011;38286;51.156;17.038;2023-11-21T05:55:42;13.52;;;6.80;;
52354;SDS011;38286;51.156;17.038;2023-11-21T05:58:07;11.52;;;6.90;;
52354;SDS011;38286;51.156;17.038;2023-11-21T06:00:34;12.82;;;6.85;;
52354;SDS011;38286;51.156;17.038;2023-11-21T06:03:00;14.25;;;6.95;;
52354;SDS011;38286;51.156;17.038;2023-11-21T06:05:26;12.55;;;7.05;;
52354;SDS011;38286;51.156;17.038;2023-11-21T06:07:52;16.88;;;7.35;;
52354;SDS011;38286;51.156;17.038;2023-11-21T06:10:20;15.75;;;7.60;;
52354;SDS011;38286;51.156;17.038;2023-11-21T06:12:46;15.68;;;7.47;;
52354;SDS011;38286;51.156;17.038;2023-11-21T06:15:13;12.90;;;6.68;;
52354;SDS011;38286;51.156;17.038;2023-11-21T06:17:39;16.65;;;7.30;;
52354;SDS011;38286;51.156;17.038;2023-11-21T06:20:05;15.35;;;7.80;;
52354;SDS011;38286;51.156;17.038;2023-11-21T06:22:39;13.52;;;7.50;;
52354;SDS011;38286;51.156;17.038;2023-11-21T06:25:06;15.77;;;7.47;;
52354;SDS011;38286;51.156;17.038;2023-11-21T06:27:43;17.73;;;8.38;;
52354;SDS011;38286;51.156;17.038;2023-11-21T06:30:10;16.08;;;7.80;;
52354;SDS011;38286;51.156;17.038;2023-11-21T06:32:37;13.48;;;7.65;;
52354;SDS011;38286;51.156;17.038;2023-11-21T06:35:05;15.60;;;7.65;;
52354;SDS011;38286;51.156;17.038;2023-11-21T06:37:32;16.80;;;8.43;;
52354;SDS011;38286;51.156;17.038;2023-11-21T06:39:58;17.13;;;8.13;;
52354;SDS011;38286;51.156;17.038;2023-11-21T06:42:25;14.07;;;7.47;;
52354;SDS011;38286;51.156;17.038;2023-11-21T06:44:52;13.70;;;7.45;;
52354;SDS011;38286;51.156;17.038;2023-11-21T06:47:19;16.17;;;7.22;;
52354;SDS011;38286;51.156;17.038;2023-11-21T06:49:46;19.55;;;7.63;;
52354;SDS011;38286;51.156;17.038;2023-11-21T06:52:15;15.95;;;7.78;;
52354;SDS011;38286;51.156;17.038;2023-11-21T06:54:41;16.92;;;8.00;;
52354;SDS011;38286;51.156;17.038;2023-11-21T06:57:07;17.83;;;7.68;;
52354;SDS011;38286;51.156;17.038;2023-11-21T06:59:33;22.83;;;8.35;;
52354;SDS011;38286;51.156;17.038;2023-11-21T07:01:59;17.35;;;8.32;;
52354;SDS011;38286;51.156;17.038;2023-11-21T07:04:25;18.83;;;7.60;;
52354;SDS011;38286;51.156;17.038;2023-11-21T07:06:51;18.50;;;7.40;;
52354;SDS011;38286;51.156;17.038;2023-11-21T07:09:18;15.98;;;7.82;;
52354;SDS011;38286;51.156;17.038;2023-11-21T07:11:50;16.83;;;8.20;;
52354;SDS011;38286;51.156;17.038;2023-11-21T07:14:16;16.40;;;7.72;;
52354;SDS011;38286;51.156;17.038;2023-11-21T07:16:42;15.70;;;7.65;;
52354;SDS011;38286;51.156;17.038;2023-11-21T07:19:08;17.20;;;7.57;;
52354;SDS011;38286;51.156;17.038;2023-11-21T07:21:34;19.08;;;8.07;;
52354;SDS011;38286;51.156;17.038;2023-11-21T07:24:04;14.90;;;7.80;;
52354;SDS011;38286;51.156;17.038;2023-11-21T07:26:34;17.38;;;8.20;;
52354;SDS011;38286;51.156;17.038;2023-11-21T07:29:01;17.27;;;8.23;;
52354;SDS011;38286;51.156;17.038;2023-11-21T07:31:28;17.42;;;7.13;;
52354;SDS011;38286;51.156;17.038;2023-11-21T07:33:55;16.50;;;8.18;;
52354;SDS011;38286;51.156;17.038;2023-11-21T07:36:23;18.88;;;8.40;;
52354;SDS011;38286;51.156;17.038;2023-11-21T07:38:49;17.38;;;8.18;;
52354;SDS011;38286;51.156;17.038;2023-11-21T07:41:16;17.77;;;8.00;;
52354;SDS011;38286;51.156;17.038;2023-11-21T07:43:46;14.95;;;7.50;;
52354;SDS011;38286;51.156;17.038;2023-11-21T07:46:12;16.25;;;7.70;;
52354;SDS011;38286;51.156;17.038;2023-11-21T07:48:38;14.90;;;7.57;;
52354;SDS011;38286;51.156;17.038;2023-11-21T07:51:05;21.55;;;7.95;;
52354;SDS011;38286;51.156;17.038;2023-11-21T07:53:32;16.92;;;8.38;;
52354;SDS011;38286;51.156;17.038;2023-11-21T07:55:59;14.60;;;7.70;;
52354;SDS011;38286;51.156;17.038;2023-11-21T07:58:28;20.67;;;8.70;;
52354;SDS011;38286;51.156;17.038;2023-11-21T08:00:54;16.98;;;7.75;;
52354;SDS011;38286;51.156;17.038;2023-11-21T08:03:20;18.75;;;7.53;;
52354;SDS011;38286;51.156;17.038;2023-11-21T08:05:46;17.88;;;9.13;;
52354;SDS011;38286;51.156;17.038;2023-11-21T08:08:13;14.77;;;7.68;;
52354;SDS011;38286;51.156;17.038;2023-11-21T08:10:38;16.45;;;8.70;;
52354;SDS011;38286;51.156;17.038;2023-11-21T08:13:05;18.27;;;8.43;;
52354;SDS011;38286;51.156;17.038;2023-11-21T08:15:33;14.60;;;7.40;;
52354;SDS011;38286;51.156;17.038;2023-11-21T08:17:59;17.92;;;7.70;;
52354;SDS011;38286;51.156;17.038;2023-11-21T08:20:25;14.10;;;7.82;;
52354;SDS011;38286;51.156;17.038;2023-11-21T08:22:51;15.73;;;7.88;;
52354;SDS011;38286;51.156;17.038;2023-11-21T08:25:18;18.52;;;8.25;;
52354;SDS011;38286;51.156;17.038;2023-11-21T08:27:45;22.13;;;8.98;;
52354;SDS011;38286;51.156;17.038;2023-11-21T08:30:12;17.75;;;7.85;;
52354;SDS011;38286;51.156;17.038;2023-11-21T08:32:39;15.93;;;8.60;;
52354;SDS011;38286;51.156;17.038;2023-11-21T08:35:07;19.13;;;8.98;;
52354;SDS011;38286;51.156;17.038;2023-11-21T08:37:33;21.08;;;8.38;;
52354;SDS011;38286;51.156;17.038;2023-11-21T08:40:05;16.98;;;7.90;;
52354;SDS011;38286;51.156;17.038;2023-11-21T08:42:35;14.30;;;7.72;;
52354;SDS011;38286;51.156;17.038;2023-11-21T08:45:01;19.92;;;8.98;;
52354;SDS011;38286;51.156;17.038;2023-11-21T08:47:27;17.48;;;7.65;;
52354;SDS011;38286;51.156;17.038;2023-11-21T08:49:53;16.77;;;8.35;;
52354;SDS011;38286;51.156;17.038;2023-11-21T08:52:19;17.20;;;7.78;;
52354;SDS011;38286;51.156;17.038;2023-11-21T08:54:48;19.48;;;7.80;;
52354;SDS011;38286;51.156;17.038;2023-11-21T08:57:25;20.27;;;8.60;;
52354;SDS011;38286;51.156;17.038;2023-11-21T08:59:51;19.08;;;8.75;;
52354;SDS011;38286;51.156;17.038;2023-11-21T09:02:30;16.77;;;7.47;;
52354;SDS011;38286;51.156;17.038;2023-11-21T09:04:55;18.08;;;8.93;;
52354;SDS011;38286;51.156;17.038;2023-11-21T09:07:21;15.57;;;6.78;;
52354;SDS011;38286;51.156;17.038;2023-11-21T09:09:47;15.88;;;7.28;;
52354;SDS011;38286;51.156;17.038;2023-11-21T09:12:14;16.17;;;7.22;;
52354;SDS011;38286;51.156;17.038;2023-11-21T09:14:41;10.57;;;6.68;;
52354;SDS011;38286;51.156;17.038;2023-11-21T09:17:09;12.68;;;6.05;;
52354;SDS011;38286;51.156;17.038;2023-11-21T09:19:38;12.40;;;6.50;;
52354;SDS011;38286;51.156;17.038;2023-11-21T09:22:04;13.25;;;6.07;;
52354;SDS011;38286;51.156;17.038;2023-11-21T09:24:33;10.63;;;5.47;;
52354;SDS011;38286;51.156;17.038;2023-11-21T09:26:59;9.95;;;4.50;;
52354;SDS011;38286;51.156;17.038;2023-11-21T09:29:26;9.95;;;4.72;;
52354;SDS011;38286;51.156;17.038;2023-11-21T09:31:52;9.20;;;4.90;;
52354;SDS011;38286;51.156;17.038;2023-11-21T09:34:20;7.13;;;4.15;;
52354;SDS011;38286;51.156;17.038;2023-11-21T09:36:47;9.32;;;3.97;;
52354;SDS011;38286;51.156;17.038;2023-11-21T09:39:13;9.52;;;4.90;;
52354;SDS011;38286;51.156;17.038;2023-11-21T09:41:49;7.82;;;4.65;;
52354;SDS011;38286;51.156;17.038;2023-11-21T09:44:23;8.15;;;4.53;;
52354;SDS011;38286;51.156;17.038;2023-11-21T09:47:00;7.23;;;3.73;;
52354;SDS011;38286;51.156;17.038;2023-11-21T09:49:25;7.47;;;4.80;;
52354;SDS011;38286;51.156;17.038;2023-11-21T09:51:54;9.32;;;4.10;;
52354;SDS011;38286;51.156;17.038;2023-11-21T09:54:21;12.05;;;4.60;;
52354;SDS011;38286;51.156;17.038;2023-11-21T09:56:48;8.95;;;3.85;;
52354;SDS011;38286;51.156;17.038;2023-11-21T09:59:15;8.73;;;4.50;;
52354;SDS011;38286;51.156;17.038;2023-11-21T10:01:42;10.55;;;4.50;;
52354;SDS011;38286;51.156;17.038;2023-11-21T10:04:11;8.88;;;4.75;;
52354;SDS011;38286;51.156;17.038;2023-11-21T10:06:40;9.90;;;4.65;;
52354;SDS011;38286;51.156;17.038;2023-11-21T10:09:12;9.52;;;4.50;;
52354;SDS011;38286;51.156;17.038;2023-11-21T10:11:40;8.55;;;4.72;;
52354;SDS011;38286;51.156;17.038;2023-11-21T10:14:12;7.78;;;4.07;;
52354;SDS011;38286;51.156;17.038;2023-11-21T10:16:40;11.18;;;4.07;;
52354;SDS011;38286;51.156;17.038;2023-11-21T10:19:09;21.00;;;9.50;;
52354;SDS011;38286;51.156;17.038;2023-11-21T10:21:39;25.80;;;11.45;;
52354;SDS011;38286;51.156;17.038;2023-11-21T10:24:05;27.98;;;13.25;;
52354;SDS011;38286;51.156;17.038;2023-11-21T10:26:31;26.00;;;12.23;;
52354;SDS011;38286;51.156;17.038;2023-11-21T10:28:58;28.35;;;14.27;;
52354;SDS011;38286;51.156;17.038;2023-11-21T10:31:27;26.92;;;13.77;;
52354;SDS011;38286;51.156;17.038;2023-11-21T10:33:57;27.23;;;13.75;;
52354;SDS011;38286;51.156;17.038;2023-11-21T10:36:37;26.95;;;13.27;;
52354;SDS011;38286;51.156;17.038;2023-11-21T10:39:03;27.60;;;14.25;;
52354;SDS011;38286;51.156;17.038;2023-11-21T10:41:29;27.17;;;13.30;;
52354;SDS011;38286;51.156;17.038;2023-11-21T10:43:55;27.92;;;13.35;;
52354;SDS011;38286;51.156;17.038;2023-11-21T10:46:21;23.48;;;12.57;;
52354;SDS011;38286;51.156;17.038;2023-11-21T10:48:57;26.42;;;12.80;;
52354;SDS011;38286;51.156;17.038;2023-11-21T10:51:23;28.50;;;14.40;;
52354;SDS011;38286;51.156;17.038;2023-11-21T10:53:53;27.02;;;13.07;;
52354;SDS011;38286;51.156;17.038;2023-11-21T10:56:20;27.27;;;13.73;;
52354;SDS011;38286;51.156;17.038;2023-11-21T10:58:49;27.15;;;13.30;;
52354;SDS011;38286;51.156;17.038;2023-11-21T11:01:19;27.42;;;14.13;;
52354;SDS011;38286;51.156;17.038;2023-11-21T11:03:49;29.67;;;14.80;;
52354;SDS011;38286;51.156;17.038;2023-11-21T11:06:16;29.08;;;13.32;;
52354;SDS011;38286;51.156;17.038;2023-11-21T11:08:42;25.00;;;12.43;;
52354;SDS011;38286;51.156;17.038;2023-11-21T11:11:10;21.92;;;11.48;;
52354;SDS011;38286;51.156;17.038;2023-11-21T11:13:37;26.77;;;13.32;;
52354;SDS011;38286;51.156;17.038;2023-11-21T11:16:03;25.80;;;13.07;;
52354;SDS011;38286;51.156;17.038;2023-11-21T11:18:32;26.85;;;13.10;;
52354;SDS011;38286;51.156;17.038;2023-11-21T11:24:27;27.90;;;14.10;;
52354;SDS011;38286;51.156;17.038;2023-11-21T11:26:55;33.45;;;15.57;;
52354;SDS011;38286;51.156;17.038;2023-11-21T11:29:41;28.25;;;14.32;;
52354;SDS011;38286;51.156;17.038;2023-11-21T11:32:21;31.95;;;14.80;;
52354;SDS011;38286;51.156;17.038;2023-11-21T11:35:10;34.05;;;15.25;;
52354;SDS011;38286;51.156;17.038;2023-11-21T11:37:59;32.78;;;14.82;;
52354;SDS011;38286;51.156;17.038;2023-11-21T11:40:33;34.10;;;15.30;;
52354;SDS011;38286;51.156;17.038;2023-11-21T11:43:05;37.00;;;15.50;;
52354;SDS011;38286;51.156;17.038;2023-11-21T11:45:33;29.33;;;15.10;;
52354;SDS011;38286;51.156;17.038;2023-11-21T11:48:00;29.30;;;14.52;;
52354;SDS011;38286;51.156;17.038;2023-11-21T11:50:26;35.20;;;14.95;;
52354;SDS011;38286;51.156;17.038;2023-11-21T11:52:52;30.17;;;15.30;;
52354;SDS011;38286;51.156;17.038;2023-11-21T11:55:20;33.83;;;15.80;;
52354;SDS011;38286;51.156;17.038;2023-11-21T11:57:48;32.55;;;17.13;;
52354;SDS011;38286;51.156;17.038;2023-11-21T12:00:18;31.75;;;16.23;;
52354;SDS011;38286;51.156;17.038;2023-11-21T12:02:47;28.00;;;15.52;;
52354;SDS011;38286;51.156;17.038;2023-11-21T12:05:15;29.38;;;14.55;;
52354;SDS011;38286;51.156;17.038;2023-11-21T12:07:45;27.95;;;13.85;;
52354;SDS011;38286;51.156;17.038;2023-11-21T12:10:16;26.20;;;14.52;;
52354;SDS011;38286;51.156;17.038;2023-11-21T12:12:44;25.20;;;13.07;;
52354;SDS011;38286;51.156;17.038;2023-11-21T12:15:11;25.08;;;12.63;;
52354;SDS011;38286;51.156;17.038;2023-11-21T12:17:39;20.83;;;11.48;;
52354;SDS011;38286;51.156;17.038;2023-11-21T12:20:06;21.25;;;11.32;;
52354;SDS011;38286;51.156;17.038;2023-11-21T12:22:43;17.40;;;10.35;;
52354;SDS011;38286;51.156;17.038;2023-11-21T12:25:10;20.73;;;10.40;;
52354;SDS011;38286;51.156;17.038;2023-11-21T12:27:42;21.92;;;11.02;;
52354;SDS011;38286;51.156;17.038;2023-11-21T12:30:09;19.50;;;11.48;;
52354;SDS011;38286;51.156;17.038;2023-11-21T12:32:39;19.65;;;11.45;;
52354;SDS011;38286;51.156;17.038;2023-11-21T12:35:07;20.85;;;11.82;;
52354;SDS011;38286;51.156;17.038;2023-11-21T12:37:36;20.45;;;11.35;;
52354;SDS011;38286;51.156;17.038;2023-11-21T12:40:04;20.88;;;12.23;;
52354;SDS011;38286;51.156;17.038;2023-11-21T12:42:38;19.65;;;11.68;;
52354;SDS011;38286;51.156;17.038;2023-11-21T12:47:40;17.88;;;10.07;;
52354;SDS011;38286;51.156;17.038;2023-11-21T12:50:07;17.35;;;10.77;;
52354;SDS011;38286;51.156;17.038;2023-11-21T12:52:45;15.82;;;9.63;;
52354;SDS011;38286;51.156;17.038;2023-11-21T12:55:15;15.90;;;9.55;;
52354;SDS011;38286;51.156;17.038;2023-11-21T12:57:53;16.38;;;9.95;;
52354;SDS011;38286;51.156;17.038;2023-11-21T13:00:20;14.52;;;9.73;;
52354;SDS011;38286;51.156;17.038;2023-11-21T13:03:00;16.80;;;9.80;;
52354;SDS011;38286;51.156;17.038;2023-11-21T13:05:37;13.43;;;9.05;;
52354;SDS011;38286;51.156;17.038;2023-11-21T13:08:10;15.00;;;9.00;;
52354;SDS011;38286;51.156;17.038;2023-11-21T13:10:38;16.75;;;8.98;;
52354;SDS011;38286;51.156;17.038;2023-11-21T13:13:08;13.55;;;8.05;;
52354;SDS011;38286;51.156;17.038;2023-11-21T13:15:38;13.30;;;8.50;;
52354;SDS011;38286;51.156;17.038;2023-11-21T13:18:06;12.25;;;8.00;;
52354;SDS011;38286;51.156;17.038;2023-11-21T13:20:32;16.17;;;8.85;;
52354;SDS011;38286;51.156;17.038;2023-11-21T13:22:58;15.13;;;9.48;;
52354;SDS011;38286;51.156;17.038;2023-11-21T13:25:28;14.43;;;8.25;;
52354;SDS011;38286;51.156;17.038;2023-11-21T13:27:57;16.95;;;10.05;;
52354;SDS011;38286;51.156;17.038;2023-11-21T13:30:28;12.52;;;8.20;;
52354;SDS011;38286;51.156;17.038;2023-11-21T13:33:03;13.38;;;8.80;;
52354;SDS011;38286;51.156;17.038;2023-11-21T13:35:38;13.65;;;9.15;;
52354;SDS011;38286;51.156;17.038;2023-11-21T13:38:09;15.57;;;9.43;;
52354;SDS011;38286;51.156;17.038;2023-11-21T13:40:36;16.08;;;9.98;;
52354;SDS011;38286;51.156;17.038;2023-11-21T13:43:10;15.07;;;10.30;;
52354;SDS011;38286;51.156;17.038;2023-11-21T13:45:40;14.65;;;9.30;;
52354;SDS011;38286;51.156;17.038;2023-11-21T13:48:06;14.85;;;9.40;;
52354;SDS011;38286;51.156;17.038;2023-11-21T13:50:42;17.17;;;9.00;;
52354;SDS011;38286;51.156;17.038;2023-11-21T13:53:14;12.25;;;8.27;;
52354;SDS011;38286;51.156;17.038;2023-11-21T13:55:48;15.05;;;8.95;;
52354;SDS011;38286;51.156;17.038;2023-11-21T13:58:15;13.73;;;9.10;;
52354;SDS011;38286;51.156;17.038;2023-11-21T14:00:50;12.48;;;8.90;;
52354;SDS011;38286;51.156;17.038;2023-11-21T14:03:24;13.43;;;8.93;;
52354;SDS011;38286;51.156;17.038;2023-11-21T14:06:03;13.85;;;9.15;;
52354;SDS011;38286;51.156;17.038;2023-11-21T14:08:34;12.55;;;8.77;;
52354;SDS011;38286;51.156;17.038;2023-11-21T14:11:00;13.25;;;8.90;;
52354;SDS011;38286;51.156;17.038;2023-11-21T14:13:26;14.88;;;9.65;;
52354;SDS011;38286;51.156;17.038;2023-11-21T14:15:52;15.23;;;9.30;;
52354;SDS011;38286;51.156;17.038;2023-11-21T14:18:24;15.70;;;9.70;;
52354;SDS011;38286;51.156;17.038;2023-11-21T14:21:01;11.70;;;8.23;;
52354;SDS011;38286;51.156;17.038;2023-11-21T14:23:27;13.15;;;8.23;;
52354;SDS011;38286;51.156;17.038;2023-11-21T14:25:55;16.05;;;9.45;;
52354;SDS011;38286;51.156;17.038;2023-11-21T14:28:22;14.85;;;9.55;;
52354;SDS011;38286;51.156;17.038;2023-11-21T14:30:48;15.80;;;10.13;;